Terminal Aerodrome Forecast
Issued by NWS

Home | Current Version | Previous Version | Text Only | Print | Product List | Glossary On
Versions: 1 2 3 4 5 6 7 8 9 10 11 12 13 14 15 16 17 18 19 20 21 22 23 24 25 26 27 28 29 30 31 32 33 34 35 36 37 38 39 40 41 42 43 44 45 46 47 48 49 50
000
FTUS43 KGRB 261902 AAB
TAFATW
TAF AMD
KATW 261902Z 2619/2718 24010KT P6SM SCT015 BKN090
      TEMPO 2623/2624 -TSRA OVC035CB
     FM270700 01005KT P6SM SCT011
      TEMPO 2708/2712 5SM BR BKN011
     FM271300 04010KT P6SM SCT020=

USA.gov is the U.S. government's official web portal to all federal, state and local government web resources and services.